createdAt,value
2017-11-22T00:01:12.714Z,106.93
2017-11-22T00:03:40.145Z,58.42
2017-11-22T00:06:07.578Z,98.45
2017-11-22T00:08:35.022Z,99.47
2017-11-22T00:11:02.458Z,159.35
2017-11-22T00:13:29.922Z,78.95
2017-11-22T00:15:57.364Z,146.13
2017-11-22T00:18:24.794Z,143.45
2017-11-22T00:20:52.238Z,136.60
2017-11-22T00:23:19.681Z,101.18
2017-11-22T00:25:47.139Z,163.07
2017-11-22T00:28:14.575Z,137.02
2017-11-22T00:30:42.009Z,91.25
2017-11-22T00:33:09.453Z,248.70
2017-11-22T00:35:36.890Z,374.15
2017-11-22T00:38:04.337Z,545.25
2017-11-22T00:40:31.777Z,249.12
2017-11-22T00:42:59.234Z,347.60
2017-11-22T00:45:26.689Z,264.63
2017-11-22T00:47:54.124Z,226.68
2017-11-22T00:50:21.611Z,377.55
2017-11-22T00:52:49.049Z,240.82
2017-11-22T00:55:16.478Z,260.52
2017-11-22T00:57:43.938Z,264.95
2017-11-22T01:00:11.385Z,418.60
2017-11-22T01:02:38.924Z,213.05
2017-11-22T01:05:06.363Z,179.05
2017-11-22T01:07:33.892Z,133.55
2017-11-22T01:10:01.342Z,385.30
2017-11-22T01:12:28.773Z,367.50
2017-11-22T01:14:56.228Z,264.48
2017-11-22T01:17:23.680Z,234.25
2017-11-22T01:19:51.114Z,201.75
2017-11-22T01:22:18.569Z,104.32
2017-11-22T01:24:46.014Z,97.07
2017-11-22T01:27:13.461Z,165.88
2017-11-22T01:29:40.898Z,104.53
2017-11-22T01:32:08.343Z,111.40
2017-11-22T01:34:35.778Z,124.05
2017-11-22T01:37:03.226Z,90.62
2017-11-22T01:39:30.654Z,77.82
2017-11-22T01:41:58.087Z,64.85
2017-11-22T01:44:25.529Z,53.60
2017-11-22T01:46:52.966Z,53.00
2017-11-22T01:49:20.410Z,58.03
2017-11-22T01:51:47.839Z,44.40
2017-11-22T01:54:15.264Z,34.88
2017-11-22T01:56:42.706Z,38.33
2017-11-22T01:59:10.142Z,44.67
2017-11-22T02:01:37.585Z,34.90
2017-11-22T02:04:05.033Z,38.13
2017-11-22T02:06:32.476Z,35.65
2017-11-22T02:08:59.918Z,33.80
2017-11-22T02:11:27.372Z,42.80
2017-11-22T02:13:54.827Z,32.17
2017-11-22T02:16:22.258Z,40.65
2017-11-22T02:18:49.689Z,39.47
2017-11-22T02:21:17.133Z,37.85
2017-11-22T02:23:44.561Z,39.65
2017-11-22T02:26:12.000Z,50.85
2017-11-22T02:28:39.438Z,46.92
2017-11-22T02:31:06.888Z,54.60
2017-11-22T02:33:34.332Z,60.47
2017-11-22T02:36:01.761Z,44.25
2017-11-22T02:38:29.212Z,52.58
2017-11-22T02:40:56.641Z,60.28
2017-11-22T02:43:24.074Z,53.70
2017-11-22T02:45:51.520Z,49.45
2017-11-22T02:48:18.946Z,47.92
2017-11-22T02:50:46.394Z,54.50
2017-11-22T02:53:13.827Z,55.70
2017-11-22T02:55:41.257Z,39.58
2017-11-22T02:58:08.702Z,49.13
2017-11-22T03:00:36.131Z,41.83
2017-11-22T03:03:03.574Z,49.03
2017-11-22T03:05:31.006Z,43.28
2017-11-22T03:07:58.437Z,44.00
2017-11-22T03:10:25.882Z,46.20
2017-11-22T03:12:53.317Z,45.63
2017-11-22T03:15:20.761Z,38.67
2017-11-22T03:17:48.190Z,42.85
2017-11-22T03:20:15.619Z,46.53
2017-11-22T03:22:43.057Z,43.42
2017-11-22T03:25:10.496Z,50.03
2017-11-22T03:27:37.945Z,55.75
2017-11-22T03:30:05.384Z,46.45
2017-11-22T03:32:32.821Z,44.88
2017-11-22T03:35:00.262Z,59.90
2017-11-22T03:37:27.697Z,51.45
2017-11-22T03:39:55.137Z,44.75
2017-11-22T03:42:22.561Z,44.03
2017-11-22T03:44:49.991Z,38.97
2017-11-22T03:47:17.481Z,54.25
2017-11-22T03:49:50.347Z,54.55
2017-11-22T03:52:23.262Z,51.08
2017-11-22T03:54:50.685Z,44.33
2017-11-22T03:57:18.142Z,45.00
2017-11-22T03:59:48.358Z,40.92
2017-11-22T04:02:15.787Z,40.97
2017-11-22T04:04:43.226Z,46.65
2017-11-22T04:07:10.657Z,37.63
2017-11-22T04:09:38.122Z,41.47
2017-11-22T04:12:08.389Z,45.38
2017-11-22T04:14:35.936Z,39.50
2017-11-22T04:17:03.634Z,40.25
2017-11-22T04:19:40.219Z,33.47
2017-11-22T04:22:07.662Z,60.35
2017-11-22T04:24:35.206Z,42.42
2017-11-22T04:27:03.398Z,44.13
2017-11-22T04:29:31.085Z,46.67
2017-11-22T04:32:00.909Z,41.03
2017-11-22T04:34:28.351Z,52.10
2017-11-22T04:36:55.781Z,41.53
2017-11-22T04:39:23.226Z,39.28
2017-11-22T04:41:50.653Z,37.33
2017-11-22T04:44:18.090Z,38.00
2017-11-22T04:46:45.526Z,31.52
2017-11-22T04:49:12.950Z,35.80
2017-11-22T04:51:40.402Z,33.28
2017-11-22T04:54:07.859Z,31.20
2017-11-22T04:56:35.286Z,46.03
2017-11-22T04:59:02.744Z,31.00
2017-11-22T05:01:30.791Z,37.53
2017-11-22T05:03:58.257Z,35.53
2017-11-22T05:06:25.685Z,33.25
2017-11-22T05:08:53.113Z,36.67
2017-11-22T05:11:20.559Z,49.63
2017-11-22T05:13:47.994Z,36.83
2017-11-22T05:16:15.428Z,87.07
2017-11-22T05:18:42.854Z,224.52
2017-11-22T05:21:10.291Z,407.52
2017-11-22T05:23:37.734Z,36.63
2017-11-22T05:26:05.164Z,41.97
2017-11-22T05:28:32.620Z,43.45
2017-11-22T05:31:00.056Z,36.30
2017-11-22T05:33:27.482Z,41.75
2017-11-22T05:35:54.924Z,69.68
2017-11-22T05:38:22.353Z,180.43
2017-11-22T05:40:49.799Z,69.18
2017-11-22T05:43:17.245Z,70.55
2017-11-22T05:45:44.679Z,432.80
2017-11-22T05:48:12.129Z,175.35
2017-11-22T05:50:39.561Z,197.75
2017-11-22T05:53:06.990Z,203.75
2017-11-22T05:55:34.448Z,207.73
2017-11-22T05:58:01.880Z,217.25
2017-11-22T06:00:29.498Z,300.20
2017-11-22T06:02:56.948Z,192.13
2017-11-22T06:05:24.377Z,239.65
2017-11-22T06:07:51.821Z,154.60
2017-11-22T06:10:19.253Z,65.90
2017-11-22T06:12:46.693Z,33.45
2017-11-22T06:15:14.134Z,44.50
2017-11-22T06:17:41.557Z,42.78
2017-11-22T06:20:09.003Z,38.28
2017-11-22T06:22:36.430Z,37.25
2017-11-22T06:25:03.854Z,40.75
2017-11-22T06:27:31.306Z,45.63
2017-11-22T06:29:58.733Z,42.33
2017-11-22T06:32:26.174Z,37.85
2017-11-22T06:34:53.617Z,45.72
2017-11-22T06:37:21.052Z,230.80
2017-11-22T06:39:48.488Z,111.37
2017-11-22T06:42:16.857Z,175.18
2017-11-22T06:44:44.290Z,115.22
2017-11-22T06:47:11.725Z,200.00
2017-11-22T06:49:39.173Z,230.15
2017-11-22T06:52:06.606Z,149.52
2017-11-22T06:54:34.039Z,235.77
2017-11-22T06:57:01.484Z,412.27
2017-11-22T06:59:28.923Z,264.67
2017-11-22T07:01:59.200Z,353.62
2017-11-22T07:04:26.641Z,95.55
2017-11-22T07:06:54.086Z,232.87
2017-11-22T07:09:21.514Z,390.58
2017-11-22T07:11:48.966Z,435.10
2017-11-22T07:14:16.402Z,122.43
2017-11-22T07:16:49.542Z,110.05
2017-11-22T07:19:16.973Z,170.90
2017-11-22T07:21:44.410Z,259.98
2017-11-22T07:24:11.875Z,239.15
2017-11-22T07:26:39.297Z,247.10
2017-11-22T07:29:06.731Z,204.07
2017-11-22T07:31:34.182Z,240.68
2017-11-22T07:34:01.657Z,94.18
2017-11-22T07:36:34.658Z,345.42
2017-11-22T07:39:02.102Z,156.25
2017-11-22T07:41:29.538Z,278.37
2017-11-22T07:43:56.982Z,154.27
2017-11-22T07:46:26.350Z,73.03
2017-11-22T07:48:53.792Z,85.82
2017-11-22T07:51:26.782Z,68.45
2017-11-22T07:53:54.225Z,73.32
2017-11-22T07:56:21.663Z,73.43
2017-11-22T07:58:49.094Z,67.55
2017-11-22T08:01:16.542Z,66.22
2017-11-22T08:03:48.382Z,71.75
2017-11-22T08:06:15.809Z,67.03
2017-11-22T08:08:43.266Z,65.85
2017-11-22T08:11:10.697Z,68.62
2017-11-22T08:13:38.137Z,69.47
2017-11-22T08:16:05.570Z,73.55
2017-11-22T08:18:33.004Z,74.28
2017-11-22T08:21:00.449Z,63.15
2017-11-22T08:23:27.882Z,68.65
2017-11-22T08:25:55.321Z,70.07
2017-11-22T08:28:22.765Z,61.30
2017-11-22T08:30:50.202Z,82.30
2017-11-22T08:33:17.633Z,68.82
2017-11-22T08:35:45.073Z,57.65
2017-11-22T08:38:12.509Z,70.15
2017-11-22T08:40:39.956Z,66.18
2017-11-22T08:43:12.947Z,65.70
2017-11-22T08:45:40.373Z,63.20
2017-11-22T08:48:07.803Z,69.00
2017-11-22T08:50:35.240Z,63.47
2017-11-22T08:53:02.667Z,61.10
2017-11-22T08:55:35.867Z,58.10
2017-11-22T08:58:08.818Z,62.17
2017-11-22T09:00:36.266Z,53.80
2017-11-22T09:03:03.689Z,52.03
2017-11-22T09:05:31.124Z,64.28
2017-11-22T09:07:58.562Z,70.12
2017-11-22T09:10:26.523Z,72.82
2017-11-22T09:12:53.970Z,76.75
2017-11-22T09:15:21.413Z,64.43
2017-11-22T09:17:48.837Z,63.63
2017-11-22T09:20:16.283Z,70.65
2017-11-22T09:22:43.715Z,71.43
2017-11-22T09:25:12.034Z,74.60
2017-11-22T09:27:44.937Z,56.85
2017-11-22T09:30:13.165Z,69.65
2017-11-22T09:32:40.602Z,70.95
2017-11-22T09:35:08.032Z,63.67
2017-11-22T09:37:35.478Z,68.45
2017-11-22T09:40:02.919Z,68.50
2017-11-22T09:42:30.374Z,58.05
2017-11-22T09:44:57.804Z,62.13
2017-11-22T09:47:25.241Z,63.90
2017-11-22T09:49:52.687Z,67.57
2017-11-22T09:52:20.125Z,52.05
2017-11-22T09:54:47.572Z,58.00
2017-11-22T09:57:15.026Z,61.63
2017-11-22T09:59:42.454Z,78.45
2017-11-22T10:02:09.892Z,50.63
2017-11-22T10:04:37.318Z,52.30
2017-11-22T10:07:04.766Z,70.30
2017-11-22T10:09:32.198Z,64.32
2017-11-22T10:11:59.621Z,46.70
2017-11-22T10:14:27.062Z,54.33
2017-11-22T10:17:00.020Z,74.13
2017-11-22T10:19:27.459Z,63.70
2017-11-22T10:22:00.486Z,60.67
2017-11-22T10:24:32.802Z,65.13
2017-11-22T10:40:22.345Z,71.33
2017-11-22T10:42:49.771Z,62.33
2017-11-22T10:45:17.199Z,58.60
2017-11-22T10:47:44.635Z,72.73
2017-11-22T10:50:12.053Z,67.00
2017-11-22T10:52:39.501Z,90.50
2017-11-22T10:55:06.922Z,78.80
2017-11-22T10:57:34.351Z,89.77
2017-11-22T11:00:01.782Z,69.73
2017-11-22T11:02:29.214Z,91.43
2017-11-22T11:04:56.653Z,62.00
2017-11-22T11:07:24.074Z,84.20
2017-11-22T11:09:51.502Z,62.27
2017-11-22T11:12:18.944Z,56.07
2017-11-22T11:14:46.394Z,52.03
2017-11-22T11:17:13.842Z,53.17
2017-11-22T11:19:41.266Z,50.53
2017-11-22T11:22:08.703Z,79.93
2017-11-22T11:24:36.136Z,76.20
2017-11-22T11:27:03.570Z,57.77
2017-11-22T11:29:31.004Z,83.43
2017-11-22T11:31:58.430Z,57.33
2017-11-22T11:34:25.863Z,60.80
2017-11-22T11:36:53.290Z,76.87
2017-11-22T11:39:20.724Z,82.20
2017-11-22T11:41:48.149Z,61.00
2017-11-22T11:44:15.574Z,67.53
2017-11-22T11:46:43.012Z,56.60
2017-11-22T11:49:10.790Z,67.67
2017-11-22T11:51:38.224Z,57.70
2017-11-22T11:54:05.646Z,53.13
2017-11-22T11:56:33.077Z,55.70
2017-11-22T11:59:00.516Z,67.63
2017-11-22T12:01:27.937Z,43.83
2017-11-22T12:03:55.388Z,59.33
2017-11-22T12:06:22.810Z,78.50
2017-11-22T12:08:50.259Z,54.63
2017-11-22T12:11:17.681Z,69.93
2017-11-22T12:13:45.109Z,59.90
2017-11-22T12:16:12.545Z,69.60
2017-11-22T12:18:39.994Z,58.37
2017-11-22T12:21:10.240Z,55.77
2017-11-22T12:23:37.661Z,42.80
2017-11-22T12:26:05.095Z,64.47
2017-11-22T12:28:32.530Z,43.57
2017-11-22T12:30:59.957Z,55.93
2017-11-22T12:33:27.452Z,60.23
2017-11-22T12:35:54.873Z,56.83
2017-11-22T12:38:24.233Z,60.20
2017-11-22T12:40:51.666Z,114.13
2017-11-22T12:43:19.104Z,83.93
2017-11-22T12:45:46.525Z,58.33
2017-11-22T12:48:13.990Z,51.40
2017-11-22T12:50:41.421Z,49.40
2017-11-22T12:53:08.863Z,77.00
2017-11-22T12:55:36.301Z,59.77
2017-11-22T12:58:03.723Z,61.90
2017-11-22T13:00:31.159Z,68.30
2017-11-22T13:02:58.594Z,62.13
2017-11-22T13:05:26.041Z,86.50
2017-11-22T13:07:53.462Z,65.90
2017-11-22T13:10:26.541Z,82.33
2017-11-22T13:12:53.964Z,58.33
2017-11-22T13:15:21.400Z,57.73
2017-11-22T13:17:48.833Z,51.53
2017-11-22T13:20:16.265Z,47.73
2017-11-22T13:22:43.704Z,37.93
2017-11-22T13:25:11.130Z,32.97
2017-11-22T13:27:38.568Z,41.23
2017-11-22T13:30:06.000Z,33.27
2017-11-22T13:32:41.848Z,37.63
2017-11-22T13:35:09.294Z,37.40
2017-11-22T13:37:36.716Z,47.77
2017-11-22T13:40:04.139Z,35.00
2017-11-22T13:42:31.577Z,26.10
2017-11-22T13:44:58.997Z,28.57
2017-11-22T13:47:26.447Z,38.40
2017-11-22T13:49:53.870Z,45.53
2017-11-22T13:52:21.305Z,46.73
2017-11-22T13:54:48.731Z,50.60
2017-11-22T13:57:16.153Z,33.23
2017-11-22T13:59:43.586Z,52.23
2017-11-22T14:02:11.018Z,43.73
2017-11-22T14:04:38.453Z,44.90
2017-11-22T14:07:05.877Z,36.63
2017-11-22T14:09:33.305Z,46.83
2017-11-22T14:12:00.746Z,28.17
2017-11-22T14:14:28.166Z,39.13
2017-11-22T14:16:55.606Z,50.30
2017-11-22T14:19:23.028Z,46.23
2017-11-22T14:21:50.458Z,44.70
2017-11-22T14:24:17.899Z,34.17
2017-11-22T14:26:45.322Z,37.57
2017-11-22T14:29:12.761Z,33.80
2017-11-22T14:31:40.182Z,37.53
2017-11-22T14:34:07.606Z,43.80
2017-11-22T14:36:35.070Z,46.00
2017-11-22T14:39:02.497Z,36.17
2017-11-22T14:41:29.935Z,46.73
2017-11-22T14:43:57.361Z,37.20
2017-11-22T14:46:24.798Z,35.30
2017-11-22T14:48:52.235Z,34.53
2017-11-22T14:51:19.686Z,42.80
2017-11-22T14:53:47.131Z,42.77
2017-11-22T14:56:14.553Z,37.53
2017-11-22T14:58:42.007Z,30.13
2017-11-22T15:01:09.453Z,60.63
2017-11-22T15:03:36.881Z,66.10
2017-11-22T15:06:04.322Z,58.70
2017-11-22T15:08:31.762Z,50.00
2017-11-22T15:10:59.202Z,51.93
2017-11-22T15:13:26.645Z,56.40
2017-11-22T15:15:54.069Z,49.03
2017-11-22T15:18:21.507Z,48.40
2017-11-22T15:20:48.976Z,50.10
2017-11-22T15:23:16.416Z,48.50
2017-11-22T15:25:43.841Z,60.53
2017-11-22T15:28:11.270Z,56.60
2017-11-22T15:30:38.738Z,45.70
2017-11-22T15:33:06.161Z,38.27
2017-11-22T15:35:33.597Z,45.00
2017-11-22T15:38:01.018Z,58.37
2017-11-22T15:40:28.419Z,61.93
2017-11-22T15:42:55.878Z,45.97
2017-11-22T15:45:23.301Z,67.13
2017-11-22T15:47:50.733Z,58.17
2017-11-22T15:50:18.146Z,56.03
2017-11-22T15:52:45.585Z,41.43
2017-11-22T15:55:13.005Z,49.73
2017-11-22T15:57:40.443Z,42.97
2017-11-22T16:00:07.871Z,50.13
2017-11-22T16:02:35.315Z,61.60
2017-11-22T16:05:02.777Z,65.13
2017-11-22T16:07:30.197Z,43.03
2017-11-22T16:09:57.631Z,67.03
2017-11-22T16:12:25.064Z,64.37
2017-11-22T16:14:52.549Z,38.83
2017-11-22T16:17:19.981Z,33.80
2017-11-22T16:19:47.398Z,48.33
2017-11-22T16:22:14.820Z,44.60
2017-11-22T16:24:42.258Z,59.13
2017-11-22T16:27:09.667Z,66.27
2017-11-22T16:29:37.109Z,33.13
2017-11-22T16:32:04.529Z,72.13
2017-11-22T16:34:31.947Z,76.40
2017-11-22T16:36:59.380Z,50.43
2017-11-22T16:39:26.803Z,48.30
2017-11-22T16:41:54.238Z,56.83
2017-11-22T16:44:21.662Z,44.13
2017-11-22T16:46:49.077Z,58.70
2017-11-22T16:49:16.513Z,48.93
2017-11-22T16:51:43.929Z,85.97
2017-11-22T16:54:11.361Z,89.40
2017-11-22T16:59:11.515Z,54.60
2017-11-22T17:01:38.942Z,78.20
2017-11-22T17:04:06.353Z,43.40
2017-11-22T17:06:33.784Z,53.53
2017-11-22T17:09:01.202Z,56.83
2017-11-22T17:11:28.642Z,53.73
2017-11-22T17:13:56.110Z,37.20
2017-11-22T17:16:23.535Z,51.73
2017-11-22T17:18:50.961Z,57.37
2017-11-22T17:21:18.382Z,34.17
2017-11-22T17:23:45.809Z,38.33
2017-11-22T17:26:13.230Z,38.00
2017-11-22T17:28:40.658Z,32.28
2017-11-22T17:31:08.090Z,51.40
2017-11-22T17:33:35.522Z,50.55
2017-11-22T17:36:02.959Z,42.90
2017-11-22T17:38:30.385Z,43.22
2017-11-22T17:40:57.806Z,47.97
2017-11-22T17:43:25.238Z,36.83
2017-11-22T17:45:52.656Z,36.03
2017-11-22T17:48:20.094Z,32.60
2017-11-22T17:50:47.518Z,45.00
2017-11-22T17:53:14.955Z,34.87
2017-11-22T17:55:42.389Z,29.33
2017-11-22T17:58:09.811Z,27.43
2017-11-22T18:00:37.248Z,31.30
2017-11-22T18:03:04.669Z,26.57
2017-11-22T18:05:32.085Z,33.43
2017-11-22T18:07:59.521Z,30.90
2017-11-22T18:10:26.941Z,30.47
2017-11-22T18:12:54.377Z,33.43
2017-11-22T18:15:21.809Z,32.67
2017-11-22T18:17:49.229Z,30.00
2017-11-22T18:20:16.661Z,30.53
2017-11-22T18:22:44.093Z,44.77
2017-11-22T18:25:11.556Z,29.73
2017-11-22T18:27:38.975Z,22.23
2017-11-22T18:30:06.414Z,26.43
2017-11-22T18:32:33.892Z,28.63
2017-11-22T18:35:01.320Z,32.53
2017-11-22T18:37:28.760Z,34.93
2017-11-22T18:39:56.186Z,37.97
2017-11-22T18:42:23.617Z,23.23
2017-11-22T18:44:51.045Z,26.83
2017-11-22T18:47:18.483Z,24.60
2017-11-22T18:49:47.594Z,28.03
2017-11-22T18:52:15.023Z,17.73
2017-11-22T18:54:42.450Z,39.50
2017-11-22T18:57:10.578Z,32.05
2017-11-22T18:59:37.996Z,25.50
2017-11-22T19:02:05.438Z,35.03
2017-11-22T19:04:32.870Z,32.63
2017-11-22T19:07:00.293Z,29.37
2017-11-22T19:09:27.735Z,33.37
2017-11-22T19:11:55.175Z,26.53
2017-11-22T19:14:22.617Z,37.10
2017-11-22T19:16:50.045Z,26.63
2017-11-22T19:19:17.481Z,27.58
2017-11-22T19:21:44.930Z,26.20
2017-11-22T19:24:12.373Z,39.50
2017-11-22T19:26:39.818Z,32.37
2017-11-22T19:29:07.259Z,31.67
2017-11-22T19:31:34.678Z,29.30
2017-11-22T19:34:02.131Z,36.75
2017-11-22T19:36:29.564Z,30.58
2017-11-22T19:38:57.026Z,42.60
2017-11-22T19:41:24.455Z,55.65
2017-11-22T19:43:51.886Z,75.85
2017-11-22T19:46:19.338Z,67.72
2017-11-22T19:48:46.773Z,78.35
2017-11-22T19:51:14.233Z,62.38
2017-11-22T19:53:41.675Z,89.78
2017-11-22T19:56:09.114Z,69.45
2017-11-22T19:58:36.557Z,59.47
2017-11-22T20:01:04.011Z,53.58
2017-11-22T20:03:31.458Z,53.28
2017-11-22T20:05:58.889Z,48.55
2017-11-22T20:08:38.032Z,31.17
2017-11-22T20:11:05.463Z,37.55
2017-11-22T20:13:32.906Z,34.58
2017-11-22T20:16:00.346Z,15.52
2017-11-22T20:18:27.798Z,16.92
2017-11-22T20:20:55.262Z,23.62
2017-11-22T20:23:22.702Z,31.10
2017-11-22T20:25:50.142Z,17.67
2017-11-22T20:28:17.589Z,21.02
2017-11-22T20:30:45.054Z,25.70
2017-11-22T20:33:12.476Z,18.53
2017-11-22T20:35:39.925Z,22.00
2017-11-22T20:38:07.378Z,26.12
2017-11-22T20:40:34.809Z,22.67
2017-11-22T20:43:02.254Z,22.98
2017-11-22T20:45:29.825Z,26.10
2017-11-22T20:47:57.257Z,25.02
2017-11-22T20:50:24.700Z,33.00
2017-11-22T20:52:52.133Z,27.65
2017-11-22T20:55:20.627Z,28.38
2017-11-22T20:57:48.059Z,27.73
2017-11-22T21:00:15.498Z,26.85
2017-11-22T21:02:42.943Z,35.53
2017-11-22T21:05:10.382Z,31.23
2017-11-22T21:07:37.876Z,34.63
2017-11-22T21:10:05.299Z,33.08
2017-11-22T21:12:32.729Z,30.02
2017-11-22T21:15:00.197Z,37.65
2017-11-22T21:17:27.634Z,30.20
2017-11-22T21:19:55.082Z,30.70
2017-11-22T21:22:22.511Z,42.47
2017-11-22T21:24:49.943Z,32.53
2017-11-22T21:27:18.584Z,35.20
2017-11-22T21:29:46.005Z,33.30
2017-11-22T21:32:13.584Z,38.47
2017-11-22T21:34:41.029Z,28.45
2017-11-22T21:37:08.464Z,36.53
2017-11-22T21:39:35.902Z,27.73
2017-11-22T21:42:03.334Z,32.75
2017-11-22T21:44:30.777Z,31.48
2017-11-22T21:46:58.209Z,32.50
2017-11-22T21:49:25.638Z,31.20
2017-11-22T21:51:53.082Z,39.35
2017-11-22T21:54:20.510Z,39.63
2017-11-22T21:56:47.954Z,28.95
2017-11-22T21:59:15.385Z,32.17
2017-11-22T22:01:42.818Z,52.22
2017-11-22T22:04:10.249Z,43.08
2017-11-22T22:06:37.682Z,39.05
2017-11-22T22:09:05.122Z,39.55
2017-11-22T22:11:32.575Z,35.55
2017-11-22T22:14:00.027Z,40.78
2017-11-22T22:16:27.467Z,33.20
2017-11-22T22:18:54.906Z,43.92
2017-11-22T22:21:22.346Z,36.50
2017-11-22T22:23:49.770Z,37.92
2017-11-22T22:26:17.219Z,47.95
2017-11-22T22:28:44.645Z,42.42
2017-11-22T22:31:12.102Z,44.08
2017-11-22T22:33:39.535Z,47.58
2017-11-22T22:36:06.962Z,51.33
2017-11-22T22:38:34.402Z,52.08
2017-11-22T22:41:01.831Z,50.75
2017-11-22T22:43:29.274Z,36.42
2017-11-22T22:45:56.703Z,39.70
2017-11-22T22:48:24.129Z,47.30
2017-11-22T22:50:51.570Z,47.95
2017-11-22T22:53:19.013Z,41.08
2017-11-22T22:55:46.457Z,48.55
2017-11-22T22:58:13.894Z,45.75
2017-11-22T23:00:41.321Z,56.03
2017-11-22T23:03:08.775Z,54.75
2017-11-22T23:05:36.213Z,55.05
2017-11-22T23:08:03.658Z,50.25
2017-11-22T23:10:31.090Z,70.30
2017-11-22T23:12:58.517Z,56.95
2017-11-22T23:15:25.959Z,69.10
2017-11-22T23:17:53.386Z,62.45
2017-11-22T23:20:20.829Z,47.55
2017-11-22T23:22:48.258Z,65.28
2017-11-22T23:25:15.696Z,56.22
2017-11-22T23:27:43.146Z,50.38
2017-11-22T23:30:10.670Z,42.72
2017-11-22T23:32:38.110Z,41.45
2017-11-22T23:35:05.558Z,45.85
2017-11-22T23:37:32.994Z,33.22
2017-11-22T23:40:00.421Z,35.90
2017-11-22T23:42:27.861Z,33.78
2017-11-22T23:44:55.292Z,35.67
2017-11-22T23:47:22.741Z,40.78
2017-11-22T23:49:50.169Z,41.60
2017-11-22T23:52:17.606Z,32.55
2017-11-22T23:54:45.038Z,38.05
2017-11-22T23:57:12.473Z,32.85
2017-11-22T23:59:39.923Z,32.30
